Flight Track Log - Related Links

Times and Time Zones

All times are in EDT time to prevent confusion due to time zone crossing. See the ASQ5875 flight status page for this flight to view local times or setup timezone preferences in your user account.

Time Position Orientation Groundspeed Altitude Reporting Facility
EDT Latitude Longitude Course Direction KTS MPH feet Rate Location/Type
Sun 12:04:16 PM 41.9833 -87.8667 109° East 173 199 2,400  Level Chicago TRACON
Sun 12:05:11 PM 41.9667 -87.8000 109° East 215 247 4,300 1,791 Climbing Chicago TRACON
Sun 12:07:27 PM 41.9725 -87.6011 88° East 275 316 8,100 2,030 Climbing Chicago Center
Sun 12:08:29 PM 42.0194 -87.5172 53° Northeast 281 323 11,000 2,661 Climbing Chicago Center
Sun 12:09:31 PM 42.0814 -87.4100 52° Northeast 304 350 13,600 1,854 Climbing Chicago Center
Sun 12:10:32 PM 42.1406 -87.3072 52° Northeast 352 405 14,800 1,415 Climbing Chicago Center
Sun 12:11:34 PM 42.2028 -87.1972 53° Northeast 368 423 16,500 1,548 Climbing Chicago Center
Sun 12:12:36 PM 42.2664 -87.0847 53° Northeast 378 435 18,000 1,268 Climbing Chicago Center
Sun 12:13:37 PM 42.2831 -86.9397 81° East 397 457 19,100 1,220 Climbing Chicago Center
Sun 12:14:39 PM 42.2900 -86.7875 86° East 406 467 20,500 1,317 Climbing Chicago Center
Sun 12:15:40 PM 42.2958 -86.6381 87° East 416 479 21,800 1,415 Climbing Chicago Center
Sun 12:16:42 PM 42.3031 -86.4569 87° East 422 486 23,400 1,403 Climbing Chicago Center
Sun 12:17:44 PM 42.3078 -86.2989 88° East 425 489 24,700 1,306 Climbing Chicago Center
Sun 12:18:46 PM 42.3139 -86.1400 87° East 425 489 26,100 1,317 Climbing Chicago Center
Sun 12:19:47 PM 42.3203 -85.9811 87° East 426 490 27,400 1,463 Climbing Chicago Center
Sun 12:20:49 PM 42.3292 -85.7931 86° East 423 487 29,100 1,452 Climbing Chicago Center
Sun 12:21:51 PM 42.3358 -85.6350 87° East 424 488 30,400 1,258 Climbing Chicago Center
Sun 12:22:53 PM 42.3422 -85.4775 87° East 423 487 31,700 1,263 Climbing Chicago Center
Sun 12:24:04 PM 42.3531 -85.2958 85° East 409 471 33,200 1,328 Climbing Cleveland Center
Sun 12:25:04 PM 42.3594 -85.1386 87° East 414 476 34,600 900 Climbing Cleveland Center
Sun 12:26:04 PM 42.3658 -84.9789 87° East 419 482 35,000 200 Climbing Cleveland Center
Sun 12:27:04 PM 42.3722 -84.8078 87° East 432 497 35,000  Level Cleveland Center
Sun 12:28:02 PM 42.3767 -84.6278 88° East 467 537 35,000  Level Chicago Center
Sun 12:29:04 PM 42.3836 -84.4456 87° East 483 556 35,000  Level Chicago Center
Sun 12:30:04 PM 42.3872 -84.2492 89° East 476 548 35,000  Level Cleveland Center
Sun 12:31:04 PM 42.3928 -84.0667 88° East 476 548 35,000  Level Cleveland Center
Sun 12:32:04 PM 42.3981 -83.8900 88° East 476 548 35,000  Level Cleveland Center
Sun 12:33:04 PM 42.4042 -83.7467 87° East 476 548 35,000  Level Cleveland Center
Sun 12:34:04 PM 42.4244 -83.5311 83° East 479 551 35,000  Level Cleveland Center
Sun 12:35:04 PM 42.4636 -83.3808 70° East 479 551 35,000  Level Cleveland Center
Sun 12:36:04 PM 42.5094 -83.2111 70° East 474 545 35,000  Level Cleveland Center
Sun 12:37:04 PM 42.5547 -83.0411 70° East 474 545 35,000  Level Cleveland Center
Sun 12:38:04 PM 42.6000 -82.8681 70° East 479 551 35,000  Level Cleveland Center
Sun 12:39:04 PM 42.6450 -82.6975 70° East 479 551 35,000  Level Cleveland Center
Sun 12:40:04 PM 42.6897 -82.5267 70° East 479 551 35,000  Level Cleveland Center
Sun 12:41:04 PM 42.7342 -82.3528 71° East 479 551 35,000  Level Cleveland Center
Sun 12:42:04 PM 42.7783 -82.1814 71° East 479 551 35,000  Level Cleveland Center
Sun 12:43:04 PM 42.8267 -81.9931 71° East 479 551 35,000  Level Cleveland Center
Sun 12:44:52 PM 42.9000 -81.6667 73° East 490 564 35,000  Level Toronto Center
Sun 12:45:52 PM 42.9333 -81.5000 75° East 490 564 35,000  Level Toronto Center
Sun 12:46:52 PM 42.9833 -81.3167 69° East 490 564 35,000  Level Toronto Center
Sun 12:47:52 PM 43.0167 -81.1333 76° East 490 564 35,000  Level Toronto Center
Sun 12:48:52 PM 43.0833 -80.9833 59° Northeast 490 564 35,000  Level Toronto Center
Sun 12:49:52 PM 43.1667 -80.8000 58° Northeast 490 564 35,000  Level Toronto Center
Sun 12:50:52 PM 43.2333 -80.6667 56° Northeast 490 564 35,000  Level Toronto Center
Sun 12:51:52 PM 43.3000 -80.5000 61° Northeast 490 564 35,000  Level Toronto Center
Sun 12:52:52 PM 43.3667 -80.3167 63° Northeast 490 564 35,000  Level Toronto Center
Sun 12:53:52 PM 43.4333 -80.1667 58° Northeast 490 564 35,000  Level Toronto Center
Sun 12:54:52 PM 43.4833 -80.0000 67° East 490 564 35,000  Level Toronto Center
Sun 12:55:52 PM 43.5667 -79.8333 55° Northeast 490 564 35,000  Level Toronto Center
Sun 12:56:52 PM 43.6167 -79.6833 65° Northeast 490 564 35,000  Level Toronto Center
Sun 12:57:52 PM 43.6667 -79.5000 69° East 490 564 35,000  Level Toronto Center
Sun 12:58:52 PM 43.7167 -79.3167 69° East 500 575 35,000  Level Toronto Center
Sun 12:59:52 PM 43.7667 -79.1167 71° East 500 575 35,000  Level Toronto Center
Sun 01:00:52 PM 43.8167 -78.9333 69° East 500 575 35,000  Level Toronto Center
Sun 01:01:52 PM 43.8667 -78.7833 65° Northeast 500 575 35,000  Level Toronto Center
Sun 01:02:52 PM 43.9333 -78.6167 61° Northeast 500 575 35,000  Level Toronto Center
Sun 01:03:52 PM 43.9667 -78.4333 76° East 500 575 35,000  Level Toronto Center
Sun 01:04:52 PM 44.0167 -78.2333 71° East 500 575 35,000  Level Toronto Center
Sun 01:05:52 PM 44.0833 -78.0500 63° Northeast 500 575 35,000  Level Toronto Center
Sun 01:06:52 PM 44.1333 -77.8833 67° East 500 575 35,000  Level Toronto Center
Sun 01:07:52 PM 44.1833 -77.7000 69° East 500 575 35,000  Level Toronto Center
Sun 01:08:52 PM 44.2500 -77.5167 63° Northeast 500 575 35,000  Level Toronto Center
Sun 01:09:52 PM 44.2833 -77.3500 74° East 500 575 35,000  Level Toronto Center
Sun 01:10:52 PM 44.3500 -77.1667 63° Northeast 500 575 35,000  Level Toronto Center
Sun 01:11:16 PM 44.3667 -77.1167 65° Northeast 500 575 35,000  Level Montreal Center
Sun 01:12:16 PM 44.4167 -76.9333 69° East 500 575 35,000  Level Montreal Center
Sun 01:13:16 PM 44.4667 -76.7500 69° East 500 575 35,000  Level Montreal Center
Sun 01:13:52 PM 44.5000 -76.6167 71° East 500 575 35,000  Level Toronto Center
Sun 01:14:52 PM 44.5500 -76.4500 67° East 500 575 35,000  Level Toronto Center
Sun 01:15:52 PM 44.6000 -76.2667 69° East 500 575 35,000  Level Toronto Center
Sun 01:16:16 PM 44.6167 -76.2000 71° East 500 575 35,000  Level Montreal Center
Sun 01:17:16 PM 44.6833 -76.0167 63° Northeast 500 575 35,000 -150 Level Montreal Center
Sun 01:18:16 PM 44.7333 -75.8333 69° East 510 587 34,700 -1,250 Descending Montreal Center
Sun 01:19:16 PM 44.7667 -75.6667 74° East 500 575 32,500 -2,400 Descending Montreal Center
Sun 01:20:16 PM 44.8167 -75.4667 71° East 470 541 29,900 -2,400 Descending Montreal Center
Sun 01:21:16 PM 44.8667 -75.3000 67° East 470 541 27,700 -2,300 Descending Montreal Center
Sun 01:22:16 PM 44.9167 -75.1167 69° East 470 541 25,300 -2,350 Descending Montreal Center
Sun 01:23:16 PM 44.9500 -74.9500 74° East 470 541 23,000 -2,350 Descending Montreal Center
Sun 01:24:16 PM 45.0167 -74.8000 58° Northeast 440 506 20,600 -2,350 Descending Montreal Center
Sun 01:25:16 PM 45.0833 -74.6667 55° Northeast 420 483 18,300 -1,900 Descending Montreal Center
Sun 01:26:16 PM 45.1500 -74.5500 51° Northeast 400 460 16,800 -1,900 Descending Montreal Center
Sun 01:27:16 PM 45.2000 -74.4000 65° Northeast 390 449 14,500 -2,250 Descending Montreal Center
Sun 01:28:16 PM 45.2500 -74.2833 59° Northeast 370 426 12,300 -1,800 Descending Montreal Center
Sun 01:29:16 PM 45.3000 -74.1667 59° Northeast 350 403 10,900 -1,150 Descending Montreal Center
Sun 01:30:16 PM 45.3333 -74.0667 65° Northeast 300 345 10,000 -1,150 Descending Montreal Center
Sun 01:31:16 PM 45.4000 -73.9833 41° Northeast 260 299 8,600 -1,350 Descending Montreal Center
Sun 01:32:16 PM 45.4500 -73.9167 43° Northeast 250 288 7,300 -1,250 Descending Montreal Center
Sun 01:33:16 PM 45.5000 -73.8333 49° Northeast 240 276 6,100 -1,050 Descending Montreal Center
Sun 01:34:16 PM 45.5500 -73.7833 35° Northeast 250 288 5,200 -1,100 Descending Montreal Center
Sun 01:35:16 PM 45.6000 -73.7167 43° Northeast 230 265 3,900 -1,100 Descending Montreal Center
Sun 01:36:16 PM 45.6333 -73.6500 54° Northeast 210 242 3,000 -450 Descending Montreal Center
Sun 01:37:16 PM 45.5833 -73.6000 145° Southeast 200 230 3,000 -200 Level Montreal Center
Sun 01:38:16 PM 45.5333 -73.6500 215° Southwest 210 242 2,600 -850 Descending Montreal Center
Sun 01:39:16 PM 45.5000 -73.6667 199° South 160 184 1,300 -1,150 Descending Montreal Center
Sun 01:40:16 PM 45.4833 -73.7167 245° Southwest 140 161 300 -600 Descending Montreal Center
Sun 01:41:16 PM 45.4500 -73.7500 215° Southwest 40 46 100 -100 Descending Montreal Center
Sun 01:42:16 PM 45.4500 -73.7500 215° Southwest 20 23 100  Level Montreal Center

Login

Don't have an account? Register now (free) for customized features, flight alerts, and more!